Wednesday, October 18, 2017, 3:40 AM EDT
Back to Local

KFMH, Otis Air National Guard Base

Location: Mashpee, MA, United States Lat: 41.65
Local Time: 3:40 AM EDT ( 7:40 GMT) Lon: -70.517
Time Zone: US/Eastern Elev: 131 ft

Show me the last for .
Show Coded

Time T Td Feel RH Dir Speed Gust Alt SLP Vis Weather Sky Remarks
2017-10-18 03:15 48 43 44 81 250° 10 - 30.24 - 10 CLR None
2017-10-18 02:55 39 37 - 93 - Calm - 30.25 - 10 CLR None
2017-10-18 02:35 39 37 - 93 - Calm - 30.25 - 10 CLR None
2017-10-18 02:15 39 37 - 93 - Calm - 30.25 - 10 CLR None
2017-10-18 01:55 41 37 - 86 - Calm - 30.26 - 10 CLR None
2017-10-18 01:35 43 39 - 86 - Calm - 30.26 - 10 CLR None
2017-10-18 01:15 41 39 - 93 - Calm - 30.26 - 10 CLR None
2017-10-18 00:55 43 39 - 86 - Calm - 30.26 - 10 CLR None
2017-10-18 00:35 45 41 42 87 220° 5 - 30.26 - 10 CLR None
2017-10-18 00:15 43 39 - 86 - Calm - 30.27 - 10 CLR None
2017-10-17 23:55 43 39 41 86 230° 3 - 30.27 - 10 CLR None
2017-10-17 23:35 43 39 39 86 240° 6 - 30.27 - 10 CLR None
2017-10-17 23:15 41 37 37 86 250° 6 - 30.28 - 10 CLR None
2017-10-17 22:55 43 39 39 86 250° 7 - 30.28 - 10 CLR None
2017-10-17 22:35 46 39 42 75 230° 8 - 30.28 - 10 CLR None
2017-10-17 22:15 45 39 41 81 220° 7 - 30.28 - 10 CLR None
2017-10-17 21:55 45 39 40 81 220° 8 - 30.28 - 10 CLR None
2017-10-17 21:35 45 37 41 75 230° 7 - 30.28 - 10 CLR None
2017-10-17 21:15 45 39 41 81 210° 7 - 30.28 - 10 CLR None
2017-10-17 20:55 45 39 40 81 220° 8 - 30.27 - 10 CLR None
2017-10-17 20:35 46 39 42 75 220° 8 - 30.27 - 10 CLR None
2017-10-17 20:15 46 39 42 75 220° 8 - 30.26 - 10 CLR None
2017-10-17 19:55 45 37 40 75 220° 8 - 30.27 - 10 CLR None
2017-10-17 19:35 45 37 41 75 210° 7 - 30.27 - 10 CLR None
2017-10-17 19:15 46 37 44 70 220° 6 - 30.27 - 10 CLR None
2017-10-17 18:55 46 37 43 70 200° 7 - 30.26 - 10 CLR None
2017-10-17 18:35 46 39 43 75 220° 7 - 30.26 - 10 CLR None
2017-10-17 18:15 48 39 45 70 220° 7 - 30.25 - 10 CLR None
2017-10-17 17:55 48 39 46 70 200° 6 - 30.25 - 10 CLR None
2017-10-17 17:35 52 39 - 62 180° 9 - 30.24 - 10 CLR None
2017-10-17 17:15 52 39 - 62 180° 9 - 30.24 - 10 CLR None
2017-10-17 16:55 54 39 - 58 180° 9 - 30.24 - 10 CLR None
2017-10-17 16:35 54 39 - 58 180° 12 - 30.24 - 10 CLR None
2017-10-17 16:15 54 37 - 54 Variable 6 - 30.25 - 10 CLR None
2017-10-17 15:55 54 36 - 50 - Calm - 30.25 - 10 CLR None
2017-10-17 15:35 54 37 - 54 50° 3 - 30.25 - 10 CLR None
2017-10-17 15:15 54 36 - 50 220° 5 - 30.25 - 10 CLR None
2017-10-17 14:55 54 36 - 50 110° 3 - 30.26 - 10 CLR None
2017-10-17 14:35 54 36 - 50 50° 7 - 30.26 - 10 CLR None
2017-10-17 14:15 54 37 - 54 50° 8 - 30.26 - 10 CLR None
2017-10-17 13:55 52 36 - 53 Variable 3 14 30.26 - 10 CLR None
2017-10-17 13:35 54 37 - 54 50° 7 14 30.26 - 10 CLR None
2017-10-17 13:15 54 37 - 54 50° 10 - 30.27 - 10 FEW034 None
2017-10-17 12:55 52 37 - 57 30° 8 14 30.27 - 10 FEW032 None
2017-10-17 12:35 52 37 - 57 40° 12 - 30.27 - 10 BKN030 None
2017-10-17 12:15 52 37 - 57 20° 8 - 30.28 - 10 BKN030 BKN034 None
2017-10-17 11:55 52 37 - 57 360° 13 - 30.28 - 10 BKN031 None
2017-10-17 11:35 50 37 46 61 10° 10 - 30.28 - 10 BKN031 None
2017-10-17 11:15 50 39 44 66 10° 8 17 30.28 - 10 BKN031 None
2017-10-17 10:55 50 37 44 61 350° 9 17 30.28 - 10 BKN034 None
2017-10-17 10:35 52 39 - 62 330° 10 - 30.28 - 10 BKN036 None
2017-10-17 10:15 50 36 45 57 360° 13 - 30.28 - 10 FEW029 None
2017-10-17 09:55 50 37 46 61 340° 12 - 30.28 - 10 CLR None
2017-10-17 09:35 48 39 43 70 Variable 7 14 30.28 - 10 CLR None
2017-10-17 09:15 46 39 42 75 350° 9 - 30.28 - 10 CLR None
2017-10-17 08:55 46 37 42 70 330° 8 - 30.27 - 10 CLR None
2017-10-17 08:35 43 37 39 81 330° 7 - 30.27 - 10 CLR None
2017-10-17 08:15 41 36 36 80 340° 8 - 30.27 - 10 CLR None
2017-10-17 07:55 41 36 36 80 340° 7 - 30.26 - 10 CLR None
2017-10-17 07:35 41 36 36 80 330° 7 - 30.24 - 10 CLR None
2017-10-17 07:15 39 36 34 86 330° 8 - 30.24 - 10 FEW033 None
2017-10-17 06:55 39 36 34 86 330° 8 - 30.23 - 10 SCT032 None
2017-10-17 06:35 39 36 33 86 330° 9 - 30.22 - 10 SCT029 BKN035 None
2017-10-17 06:15 41 36 35 80 330° 10 - 30.22 - 10 SCT028 SCT034 None
2017-10-17 05:55 41 34 35 75 320° 9 - 30.21 - 10 BKN027 None
2017-10-17 05:35 41 34 35 75 320° 9 - 30.21 - 10 BKN028 BKN033 None
2017-10-17 05:15 41 34 33 75 320° 8 15 30.20 - 10 BKN030 BKN034 None
2017-10-17 04:55 39 34 33 80 320° 9 - 30.20 - 10 SCT029 BKN034 None
2017-10-17 04:35 39 34 34 80 320° 8 - 30.19 - 10 BKN029 None
2017-10-17 04:15 41 34 36 75 310° 7 - 30.18 - 10 BKN028 None
2017-10-17 03:55 41 34 33 75 310° 8 15 30.17 - 10 BKN028 BKN033 None

Support USWX by starting your Amazon purchase here.